Wetter & Webcam

Wetterdaten Diepholz (ETND)

METAR
METAR text: ETND 230720Z 10006KT 5000 BR BKN020 M05/M07 Q1000 WHT Conditions at: ETND (DIEPHOLZ (GER-AF, DE) observed 0720 UTC 23 January 2019 Temperature: -5.0°C (23°F) Dewpoint: -7.0°C (19°F) [RH = 86%] Pressure (altimeter): 29.53 inches Hg (1000.0 mb) Winds: from the E (100 degrees) at 7 MPH (6 knots; 3.1 m/s) Visibility: 3 miles ( 5 km) Ceiling: 2000 feet AGL Clouds: broken clouds at 2000 feet AGL Weather: BR  (mist) Forecast for: ETND (DIEPHOLZ (GER-AF, DE) Text: ETND 230510Z 2306/2315 12004KT 5000 BR FEW010 BKN020 BKN160 Forecast period: 0600 to 0700 UTC 23 January 2019 Forecast type: FROM: standard forecast or significant change Winds: from the ESE (120 degrees) at 5 MPH (4 knots; 2.1 m/s) Visibility: 3 miles (5 km) Ceiling: 2000 feet AGL Clouds: few clouds at 1000 feet AGL =
broken clouds at 2000 feet AGL =
broken clouds at 16000 feet AGL Weather: BR  (mist) Text: BECMG 2307/2309 08006KT 9999 NSW FEW020 SCT200 BY ETGL Forecast period: 0700 to 1500 UTC 23 January 2019 Forecast type: BECOMING: Conditions expected to become as follows by 0900 UTC 23 January 2019 Winds: from the E (80 degrees) at 7 MPH (6 knots; 3.1 m/s) Visibility: 6 or more miles 10+ km) Ceiling: at least 12,000 feet AGL Clouds: few clouds at 2000 feet AGL =
scattered clouds at 20000 feet AGL Weather: NSW  (no significant weather)
Sunrise (SR) / Sunset (SS)
07:21 / 15:55 UTC

Wetterdaten Bremen (EDDW)

METAR
METAR text: EDDW 230720Z 10005KT 6000 NSC M07/M08 Q1001 NOSIG Conditions at: EDDW (BREMEN , DE) observed 0720 UTC 23 January 2019 Temperature: -7.0°C (19°F) Dewpoint: -8.0°C (18°F) [RH = 93%] Pressure (altimeter): 29.56 inches Hg (1001.0 mb) Winds: from the E (100 degrees) at 6 MPH (5 knots; 2.6 m/s) Visibility: 4 miles ( 6 km) Ceiling: at least 12,000 feet AGL Clouds: sky clear below 12,000 feet AGL Weather: no significant weather observed at this time Forecast for: EDDW (BREMEN , DE) Text: EDDW 230500Z 2306/2406 10007KT 9999 FEW030 Forecast period: 0600 UTC 23 January 2019 to 0600 UTC 24 January 2019 Forecast type: FROM: standard forecast or significant change Winds: from the E (100 degrees) at 8 MPH (7 knots; 3.6 m/s) Visibility: 6 or more miles 10+ km) Ceiling: at least 12,000 feet AGL Clouds: few clouds at 3000 feet AGL Weather: no significant weather forecast for this period

Copyright © 2017 Flugplatz Diepholz-Dümmerland

© 2017 Flugplatz Diepholz-Dümmerland